Boston, Massachusetts
Traffic Map
Current Weather Conditions
Boston, Massachusetts
Overcast
Overcast
-2°
Feels Like: -9°
Wind Chill: -9° Ceiling: 2700
Heat Index: -2° Visibility: 10mi
Dew Point: -6° Wind: 18mph
Humidity: 75% Direction: 50° (NE)
Pressure: 30.05in Gusts: 28mph
Raw Report DataKBOS 261954Z 05016G24KT 10SM SCT018 OVC027 M02/M06 A3005 RMK AO2 SNE38 SLP175 P0000 T10221061
Traffic Incident Summary
Active as of:
Severity:
Category:
InformationThere was an issue retrieving the traffic information for this location. Please try a different location or try again shortly.
Advertisements
Track Severe Weather on mobile